createdAt,value
2023-05-09T00:01:15.924Z,54.28
2023-05-09T00:04:01.824Z,54.97
2023-05-09T00:06:47.216Z,54.51
2023-05-09T00:09:32.359Z,55.04
2023-05-09T00:12:17.705Z,55.14
2023-05-09T00:15:03.528Z,55.38
2023-05-09T00:17:50.489Z,55.17
2023-05-09T00:20:36.068Z,55.30
2023-05-09T00:23:21.658Z,55.62
2023-05-09T00:26:07.082Z,55.34
2023-05-09T00:28:52.511Z,55.46
2023-05-09T00:31:37.713Z,55.40
2023-05-09T00:34:23.128Z,55.38
2023-05-09T00:37:08.769Z,55.98
2023-05-09T00:39:53.980Z,55.64
2023-05-09T00:42:39.441Z,55.54
2023-05-09T00:45:24.744Z,55.20
2023-05-09T00:48:10.038Z,55.17
2023-05-09T00:50:55.443Z,55.29
2023-05-09T00:53:40.670Z,55.34
2023-05-09T00:56:26.726Z,55.14
2023-05-09T00:59:11.956Z,54.93
2023-05-09T01:01:57.081Z,55.24
2023-05-09T01:04:43.411Z,54.99
2023-05-09T01:08:06.338Z,54.78
2023-05-09T01:11:12.862Z,54.77
2023-05-09T01:14:20.388Z,54.61
2023-05-09T01:17:13.257Z,54.80
2023-05-09T01:20:11.089Z,54.74
2023-05-09T01:23:03.582Z,54.79
2023-05-09T01:26:01.970Z,54.58
2023-05-09T01:29:27.095Z,54.72
2023-05-09T01:32:25.436Z,54.56
2023-05-09T01:35:14.514Z,54.75
2023-05-09T01:38:01.260Z,54.25
2023-05-09T01:40:51.644Z,54.41
2023-05-09T01:43:38.660Z,54.55
2023-05-09T01:46:25.766Z,54.02
2023-05-09T01:49:11.964Z,54.27
2023-05-09T01:51:59.106Z,54.80
2023-05-09T01:54:45.946Z,54.20
2023-05-09T01:57:33.059Z,54.10
2023-05-09T02:00:19.371Z,53.91
2023-05-09T02:03:06.082Z,54.01
2023-05-09T02:05:52.405Z,53.76
2023-05-09T02:08:38.565Z,53.78
2023-05-09T02:11:23.652Z,53.06
2023-05-09T02:14:09.105Z,52.95
2023-05-09T02:16:54.442Z,52.46
2023-05-09T02:19:39.451Z,52.20
2023-05-09T02:22:24.959Z,51.85
2023-05-09T02:25:11.884Z,51.94
2023-05-09T02:27:59.477Z,51.83
2023-05-09T02:30:47.338Z,51.71
2023-05-09T02:33:36.809Z,51.55
2023-05-09T02:36:22.987Z,51.53
2023-05-09T02:39:08.742Z,51.37
2023-05-09T02:41:54.065Z,51.14
2023-05-09T02:44:39.515Z,51.47
2023-05-09T02:47:25.659Z,51.35
2023-05-09T02:50:11.457Z,51.14
2023-05-09T02:52:57.681Z,51.28
2023-05-09T02:55:42.789Z,50.36
2023-05-09T02:58:28.211Z,50.93
2023-05-09T03:01:13.398Z,51.30
2023-05-09T03:03:58.861Z,51.43
2023-05-09T03:06:44.107Z,51.06
2023-05-09T03:09:29.241Z,50.76
2023-05-09T03:12:14.509Z,51.32
2023-05-09T03:15:01.123Z,51.25
2023-05-09T03:17:47.336Z,51.34
2023-05-09T03:20:32.684Z,51.09
2023-05-09T03:23:17.754Z,51.32
2023-05-09T03:26:03.029Z,51.48
2023-05-09T03:28:48.958Z,51.29
2023-05-09T03:31:34.589Z,51.52
2023-05-09T03:34:20.148Z,51.52
2023-05-09T03:37:05.846Z,51.79
2023-05-09T03:39:54.519Z,51.48
2023-05-09T03:42:40.478Z,51.35
2023-05-09T03:45:25.956Z,51.57
2023-05-09T03:48:12.125Z,52.14
2023-05-09T03:51:03.325Z,52.55
2023-05-09T03:53:51.349Z,52.55
2023-05-09T03:56:36.736Z,52.65
2023-05-09T03:59:22.587Z,52.56
2023-05-09T04:02:08.280Z,52.71
2023-05-09T04:04:53.634Z,52.55
2023-05-09T04:07:41.453Z,52.83
2023-05-09T04:10:28.523Z,53.23
2023-05-09T04:13:14.095Z,53.29
2023-05-09T04:15:59.967Z,53.09
2023-05-09T04:18:47.698Z,53.07
2023-05-09T04:21:33.823Z,53.46
2023-05-09T04:24:20.982Z,53.02
2023-05-09T04:27:07.876Z,52.89
2023-05-09T04:29:54.262Z,52.55
2023-05-09T04:32:39.649Z,52.67
2023-05-09T04:35:28.241Z,52.59
2023-05-09T04:38:13.647Z,52.29
2023-05-09T04:40:59.591Z,52.32
2023-05-09T04:43:45.155Z,52.44
2023-05-09T04:46:30.844Z,52.28
2023-05-09T04:49:16.561Z,52.45
2023-05-09T04:52:02.225Z,52.09
2023-05-09T04:54:47.356Z,52.14
2023-05-09T04:57:34.236Z,52.21
2023-05-09T05:00:20.321Z,52.23
2023-05-09T05:03:07.504Z,53.04
2023-05-09T05:05:53.134Z,52.17
2023-05-09T05:08:38.883Z,52.39
2023-05-09T05:11:24.231Z,52.05
2023-05-09T05:14:09.598Z,51.51
2023-05-09T05:16:55.159Z,51.30
2023-05-09T05:19:41.450Z,51.47
2023-05-09T05:22:27.247Z,51.20
2023-05-09T05:25:13.311Z,51.15
2023-05-09T05:28:00.212Z,51.02
2023-05-09T05:30:46.117Z,50.47
2023-05-09T05:33:31.686Z,50.13
2023-05-09T05:36:17.774Z,49.91
2023-05-09T05:39:02.895Z,49.32
2023-05-09T05:41:48.202Z,49.18
2023-05-09T05:44:34.132Z,48.96
2023-05-09T05:47:19.855Z,48.41
2023-05-09T05:50:11.914Z,48.54
2023-05-09T05:52:58.389Z,48.15
2023-05-09T05:55:45.856Z,46.98
2023-05-09T05:58:32.205Z,47.03
2023-05-09T06:01:18.224Z,47.19
2023-05-09T06:04:03.775Z,46.54
2023-05-09T06:06:51.329Z,46.16
2023-05-09T06:09:36.480Z,46.40
2023-05-09T06:12:21.561Z,45.78
2023-05-09T06:15:07.423Z,45.94
2023-05-09T06:17:57.343Z,45.73
2023-05-09T06:20:42.730Z,45.90
2023-05-09T06:23:28.165Z,45.04
2023-05-09T06:26:14.768Z,45.34
2023-05-09T06:28:59.852Z,45.44
2023-05-09T06:31:45.076Z,45.17
2023-05-09T06:34:30.514Z,45.05
2023-05-09T06:37:15.865Z,44.45
2023-05-09T06:40:01.000Z,44.45
2023-05-09T06:42:46.550Z,44.22
2023-05-09T06:45:31.468Z,43.80
2023-05-09T06:48:16.885Z,43.90
2023-05-09T06:51:02.188Z,44.20
2023-05-09T06:53:47.528Z,43.80
2023-05-09T06:56:33.119Z,42.43
2023-05-09T06:59:18.215Z,43.00
2023-05-09T07:02:03.562Z,42.73
2023-05-09T07:04:48.721Z,42.88
2023-05-09T07:07:33.746Z,42.64
2023-05-09T07:10:19.432Z,42.36
2023-05-09T07:13:05.226Z,42.57
2023-05-09T07:15:50.443Z,41.57
2023-05-09T07:18:35.613Z,42.13
2023-05-09T07:21:20.909Z,42.30
2023-05-09T07:24:06.656Z,41.97
2023-05-09T07:26:52.478Z,41.75
2023-05-09T07:29:38.440Z,41.28
2023-05-09T07:32:23.647Z,41.51
2023-05-09T07:35:09.412Z,40.49
2023-05-09T07:37:54.695Z,40.49
2023-05-09T07:40:39.890Z,39.85
2023-05-09T07:43:25.232Z,39.83
2023-05-09T07:46:10.611Z,39.19
2023-05-09T07:48:55.875Z,39.75
2023-05-09T07:51:41.354Z,39.05
2023-05-09T07:54:26.844Z,38.97
2023-05-09T07:57:12.220Z,39.29
2023-05-09T07:59:57.622Z,38.39
2023-05-09T08:02:42.936Z,38.37
2023-05-09T08:05:27.970Z,38.37
2023-05-09T08:08:13.292Z,37.71
2023-05-09T08:10:58.884Z,37.41
2023-05-09T08:13:44.456Z,36.89
2023-05-09T08:16:30.277Z,36.26
2023-05-09T08:19:15.824Z,36.78
2023-05-09T08:22:01.352Z,36.97
2023-05-09T08:24:47.212Z,36.10
2023-05-09T08:27:32.542Z,36.15
2023-05-09T08:30:18.218Z,36.20
2023-05-09T08:33:03.645Z,36.01
2023-05-09T08:35:56.212Z,35.96
2023-05-09T08:38:41.713Z,36.44
2023-05-09T08:41:28.094Z,35.33
2023-05-09T08:44:13.558Z,34.53
2023-05-09T08:47:00.975Z,34.81
2023-05-09T08:49:46.020Z,34.28
2023-05-09T08:52:33.442Z,34.68
2023-05-09T08:55:19.080Z,34.71
2023-05-09T08:58:05.425Z,34.90
2023-05-09T09:00:50.888Z,34.47
2023-05-09T09:03:37.935Z,34.65
2023-05-09T09:06:25.670Z,34.01
2023-05-09T09:09:13.702Z,33.19
2023-05-09T09:11:59.210Z,33.24
2023-05-09T09:14:50.282Z,33.50
2023-05-09T09:17:41.281Z,33.36
2023-05-09T09:20:29.953Z,33.18
2023-05-09T09:23:20.111Z,33.79
2023-05-09T09:26:05.322Z,33.67
2023-05-09T09:28:50.621Z,34.13
2023-05-09T09:31:35.890Z,33.56
2023-05-09T09:34:22.942Z,33.18
2023-05-09T09:37:08.242Z,33.68
2023-05-09T09:39:55.432Z,33.69
2023-05-09T09:42:45.929Z,32.60
2023-05-09T09:45:31.322Z,32.41
2023-05-09T09:48:16.670Z,32.55
2023-05-09T09:51:12.638Z,32.66
2023-05-09T09:54:02.260Z,32.48
2023-05-09T09:56:50.290Z,31.48
2023-05-09T09:59:35.816Z,31.72
2023-05-09T10:02:23.658Z,31.94
2023-05-09T10:05:09.303Z,31.82
2023-05-09T10:08:04.982Z,31.03
2023-05-09T10:10:50.386Z,31.29
2023-05-09T10:13:37.377Z,30.89
2023-05-09T10:16:35.731Z,30.26
2023-05-09T10:19:29.816Z,30.95
2023-05-09T10:22:17.950Z,30.52
2023-05-09T10:25:06.546Z,30.82
2023-05-09T10:27:54.296Z,30.71
2023-05-09T10:31:07.861Z,30.73
2023-05-09T10:33:59.243Z,30.73
2023-05-09T10:36:48.479Z,30.62
2023-05-09T10:39:34.096Z,31.46
2023-05-09T10:42:21.326Z,31.46
2023-05-09T10:45:11.046Z,31.77
2023-05-09T10:47:56.928Z,31.29
2023-05-09T10:50:43.489Z,31.34
2023-05-09T10:53:45.106Z,31.39
2023-05-09T10:56:35.723Z,30.80
2023-05-09T10:59:41.613Z,30.78
2023-05-09T11:02:30.779Z,31.10
2023-05-09T11:05:17.948Z,30.54
2023-05-09T11:08:23.265Z,29.89
2023-05-09T11:11:25.580Z,30.08
2023-05-09T11:14:48.776Z,29.93
2023-05-09T11:17:38.302Z,29.77
2023-05-09T11:20:28.347Z,29.79
2023-05-09T11:23:19.863Z,29.71
2023-05-09T11:26:07.763Z,29.79
2023-05-09T11:28:54.287Z,29.77
2023-05-09T11:32:05.610Z,29.93
2023-05-09T11:34:51.297Z,30.29
2023-05-09T11:37:46.225Z,30.95
2023-05-09T11:40:32.811Z,30.64
2023-05-09T11:43:18.527Z,30.50
2023-05-09T11:46:04.361Z,30.15
2023-05-09T11:48:49.504Z,30.37
2023-05-09T11:51:38.174Z,30.32
2023-05-09T11:54:23.742Z,30.11
2023-05-09T11:57:09.534Z,30.27
2023-05-09T11:59:55.471Z,29.05
2023-05-09T12:02:44.300Z,29.01
2023-05-09T12:05:29.627Z,28.94
2023-05-09T12:08:15.397Z,29.16
2023-05-09T12:11:10.614Z,28.49
2023-05-09T12:13:56.053Z,28.20
2023-05-09T12:16:47.817Z,27.98
2023-05-09T12:19:33.461Z,27.63
2023-05-09T12:22:29.533Z,27.81
2023-05-09T12:25:18.035Z,29.11
2023-05-09T12:28:12.766Z,28.93
2023-05-09T12:31:08.632Z,28.51
2023-05-09T12:33:54.761Z,28.53
2023-05-09T12:36:40.472Z,28.65
2023-05-09T12:39:26.726Z,28.74
2023-05-09T12:42:16.186Z,29.58
2023-05-09T12:45:02.706Z,30.17
2023-05-09T12:47:58.551Z,29.75
2023-05-09T12:50:47.255Z,30.12
2023-05-09T12:53:38.577Z,28.78
2023-05-09T12:56:24.283Z,28.28
2023-05-09T12:59:11.213Z,28.48
2023-05-09T13:01:58.802Z,28.32
2023-05-09T13:04:44.099Z,28.58
2023-05-09T13:07:29.555Z,29.06
2023-05-09T13:10:21.688Z,29.08
2023-05-09T13:13:07.039Z,29.40
2023-05-09T13:15:52.468Z,28.75
2023-05-09T13:18:37.844Z,29.21
2023-05-09T13:21:23.607Z,29.32
2023-05-09T13:24:09.093Z,29.24
2023-05-09T13:26:54.544Z,29.19
2023-05-09T13:29:43.356Z,29.49
2023-05-09T13:32:29.105Z,28.76
2023-05-09T13:35:15.524Z,28.96
2023-05-09T13:38:01.165Z,29.11
2023-05-09T13:40:46.385Z,29.26
2023-05-09T13:43:31.643Z,28.89
2023-05-09T13:46:17.208Z,28.94
2023-05-09T13:49:02.630Z,28.55
2023-05-09T13:51:47.710Z,28.57
2023-05-09T13:54:35.888Z,28.20
2023-05-09T13:57:21.448Z,28.09
2023-05-09T14:00:07.865Z,28.29
2023-05-09T14:02:57.950Z,28.73
2023-05-09T14:05:43.317Z,28.49
2023-05-09T14:08:28.528Z,28.64
2023-05-09T14:11:13.808Z,28.65
2023-05-09T14:13:59.127Z,28.74
2023-05-09T14:16:44.580Z,28.23
2023-05-09T14:19:32.596Z,28.46
2023-05-09T14:22:17.899Z,28.32
2023-05-09T14:25:03.565Z,28.40
2023-05-09T14:27:48.854Z,28.73
2023-05-09T14:30:34.321Z,28.69
2023-05-09T14:33:20.196Z,28.34
2023-05-09T14:39:38.175Z,28.46
2023-05-09T14:42:23.879Z,28.19
2023-05-09T14:45:12.093Z,28.02
2023-05-09T14:47:57.760Z,27.88
2023-05-09T14:50:43.008Z,27.99
2023-05-09T14:53:28.889Z,27.32
2023-05-09T14:56:16.725Z,27.74
2023-05-09T14:59:03.383Z,27.88
2023-05-09T15:01:50.815Z,28.26
2023-05-09T15:04:36.209Z,27.95
2023-05-09T15:07:21.457Z,27.70
2023-05-09T15:10:07.167Z,28.23
2023-05-09T15:12:52.768Z,28.27
2023-05-09T15:15:41.107Z,28.28
2023-05-09T15:18:28.596Z,29.04
2023-05-09T15:21:14.469Z,28.65
2023-05-09T15:24:00.060Z,28.68
2023-05-09T15:26:45.478Z,28.96
2023-05-09T15:29:30.562Z,28.60
2023-05-09T15:32:16.182Z,28.81
2023-05-09T15:35:01.492Z,28.53
2023-05-09T15:37:46.955Z,28.46
2023-05-09T15:40:32.153Z,28.59
2023-05-09T15:43:17.763Z,28.11
2023-05-09T15:46:03.639Z,28.42
2023-05-09T15:48:49.035Z,28.43
2023-05-09T15:51:34.166Z,28.42
2023-05-09T15:54:20.233Z,28.85
2023-05-09T15:57:06.812Z,29.06
2023-05-09T15:59:55.086Z,29.15
2023-05-09T16:02:41.991Z,29.12
2023-05-09T16:05:27.442Z,29.22
2023-05-09T16:08:13.047Z,29.34
2023-05-09T16:11:00.761Z,29.35
2023-05-09T16:13:46.597Z,29.47
2023-05-09T16:16:31.626Z,29.34
2023-05-09T16:19:18.222Z,30.25
2023-05-09T16:22:03.294Z,29.80
2023-05-09T16:24:49.117Z,29.45
2023-05-09T16:27:34.560Z,29.82
2023-05-09T16:30:19.765Z,30.03
2023-05-09T16:33:05.143Z,29.67
2023-05-09T16:35:50.608Z,29.83
2023-05-09T16:38:36.177Z,29.85
2023-05-09T16:41:22.073Z,29.85
2023-05-09T16:44:07.145Z,30.34
2023-05-09T16:46:53.189Z,30.56
2023-05-09T16:49:38.441Z,30.68
2023-05-09T16:52:24.055Z,30.82
2023-05-09T16:55:09.486Z,30.81
2023-05-09T16:57:54.564Z,31.12
2023-05-09T17:00:39.977Z,31.04
2023-05-09T17:03:25.173Z,31.44
2023-05-09T17:06:10.330Z,31.61
2023-05-09T17:08:55.450Z,31.77
2023-05-09T17:11:40.872Z,31.48
2023-05-09T17:14:26.812Z,31.87
2023-05-09T17:17:14.507Z,32.07
2023-05-09T17:20:01.160Z,32.25
2023-05-09T17:22:46.532Z,32.38
2023-05-09T17:25:31.914Z,32.63
2023-05-09T17:28:17.414Z,32.98
2023-05-09T17:31:03.285Z,32.64
2023-05-09T17:33:48.806Z,32.90
2023-05-09T17:36:34.015Z,33.20
2023-05-09T17:39:19.210Z,33.11
2023-05-09T17:42:05.202Z,33.45
2023-05-09T17:44:50.858Z,33.22
2023-05-09T17:47:37.379Z,33.88
2023-05-09T17:50:22.778Z,33.86
2023-05-09T17:53:09.388Z,33.75
2023-05-09T17:55:54.853Z,34.25
2023-05-09T17:58:39.950Z,34.18
2023-05-09T18:01:25.760Z,34.07
2023-05-09T18:04:10.826Z,34.16
2023-05-09T18:06:56.094Z,34.21
2023-05-09T18:09:41.911Z,34.53
2023-05-09T18:12:31.099Z,34.53
2023-05-09T18:15:16.046Z,34.76
2023-05-09T18:18:01.624Z,34.97
2023-05-09T18:20:47.353Z,35.17
2023-05-09T18:23:33.126Z,35.39
2023-05-09T18:26:18.405Z,35.55
2023-05-09T18:29:03.767Z,35.79
2023-05-09T18:31:49.078Z,35.63
2023-05-09T18:34:34.186Z,35.86
2023-05-09T18:37:19.630Z,35.62
2023-05-09T18:40:05.624Z,35.83
2023-05-09T18:42:50.756Z,35.87
2023-05-09T18:45:36.322Z,36.03
2023-05-09T18:48:21.610Z,36.18
2023-05-09T18:51:07.140Z,35.86
2023-05-09T18:53:52.496Z,35.88
2023-05-09T18:56:39.581Z,36.17
2023-05-09T18:59:25.041Z,36.11
2023-05-09T19:02:10.367Z,36.07
2023-05-09T19:04:55.870Z,36.17
2023-05-09T19:07:41.326Z,36.19
2023-05-09T19:10:26.580Z,36.02
2023-05-09T19:13:12.889Z,35.94
2023-05-09T19:16:00.132Z,36.06
2023-05-09T19:18:45.446Z,36.18
2023-05-09T19:21:30.724Z,36.26
2023-05-09T19:24:15.977Z,36.17
2023-05-09T19:27:01.526Z,36.01
2023-05-09T19:29:48.714Z,36.20
2023-05-09T19:32:35.072Z,36.86
2023-05-09T19:35:20.684Z,36.69
2023-05-09T19:38:05.767Z,36.64
2023-05-09T19:40:51.486Z,37.15
2023-05-09T19:43:36.646Z,37.13
2023-05-09T19:46:22.821Z,37.01
2023-05-09T19:49:12.523Z,36.85
2023-05-09T19:51:58.044Z,36.69
2023-05-09T19:54:43.373Z,37.15
2023-05-09T19:57:29.244Z,37.20
2023-05-09T20:00:14.869Z,37.25
2023-05-09T20:03:00.394Z,37.16
2023-05-09T20:05:45.474Z,37.05
2023-05-09T20:08:31.068Z,37.18
2023-05-09T20:11:16.549Z,37.33
2023-05-09T20:14:01.701Z,37.41
2023-05-09T20:16:47.050Z,37.40
2023-05-09T20:19:33.158Z,37.67
2023-05-09T20:22:18.452Z,37.60
2023-05-09T20:25:04.037Z,38.16
2023-05-09T20:27:49.291Z,38.36
2023-05-09T20:30:34.770Z,38.78
2023-05-09T20:33:19.814Z,38.70
2023-05-09T20:36:06.421Z,39.40
2023-05-09T20:38:52.059Z,39.24
2023-05-09T20:41:37.544Z,39.57
2023-05-09T20:44:23.240Z,39.43
2023-05-09T20:47:08.336Z,39.97
2023-05-09T20:49:53.432Z,39.83
2023-05-09T20:52:38.903Z,40.14
2023-05-09T20:55:24.571Z,40.29
2023-05-09T20:58:09.728Z,40.42
2023-05-09T21:00:55.284Z,40.60
2023-05-09T21:03:40.951Z,40.54
2023-05-09T21:06:26.484Z,41.22
2023-05-09T21:09:11.599Z,41.18
2023-05-09T21:11:57.015Z,41.29
2023-05-09T21:14:42.262Z,41.59
2023-05-09T21:17:27.413Z,41.26
2023-05-09T21:20:13.174Z,41.75
2023-05-09T21:22:58.705Z,42.05
2023-05-09T21:25:44.224Z,42.02
2023-05-09T21:28:29.893Z,42.37
2023-05-09T21:31:15.167Z,42.40
2023-05-09T21:34:00.714Z,42.34
2023-05-09T21:36:45.723Z,42.64
2023-05-09T21:39:32.488Z,43.25
2023-05-09T21:42:18.476Z,43.31
2023-05-09T21:45:04.419Z,43.11
2023-05-09T21:47:50.043Z,43.79
2023-05-09T21:50:35.260Z,43.87
2023-05-09T21:53:20.621Z,44.10
2023-05-09T21:56:05.972Z,44.03
2023-05-09T21:58:51.180Z,44.49
2023-05-09T22:01:36.804Z,44.36
2023-05-09T22:04:21.990Z,44.61
2023-05-09T22:07:07.706Z,44.98
2023-05-09T22:09:53.202Z,44.86
2023-05-09T22:12:38.273Z,45.15
2023-05-09T22:15:23.748Z,45.54
2023-05-09T22:18:08.873Z,45.31
2023-05-09T22:20:54.034Z,45.67
2023-05-09T22:23:39.290Z,46.17
2023-05-09T22:26:25.988Z,46.09
2023-05-09T22:29:11.050Z,46.46
2023-05-09T22:31:56.360Z,46.60
2023-05-09T22:34:41.709Z,46.88
2023-05-09T22:37:26.804Z,46.88
2023-05-09T22:40:12.342Z,47.28
2023-05-09T22:42:57.407Z,47.08
2023-05-09T22:45:43.757Z,47.55
2023-05-09T22:48:29.045Z,47.55
2023-05-09T22:51:14.966Z,47.39
2023-05-09T22:54:00.914Z,47.54
2023-05-09T22:56:47.276Z,48.07
2023-05-09T22:59:32.898Z,48.03
2023-05-09T23:02:18.374Z,47.99
2023-05-09T23:05:03.948Z,48.13
2023-05-09T23:07:49.155Z,48.55
2023-05-09T23:10:34.532Z,48.79
2023-05-09T23:13:19.959Z,48.56
2023-05-09T23:16:05.500Z,49.19
2023-05-09T23:18:50.762Z,49.22
2023-05-09T23:21:36.057Z,48.83
2023-05-09T23:24:21.329Z,49.38
2023-05-09T23:27:06.843Z,49.41
2023-05-09T23:29:51.993Z,49.73
2023-05-09T23:32:37.427Z,49.56
2023-05-09T23:35:22.568Z,49.96
2023-05-09T23:38:08.032Z,49.87
2023-05-09T23:40:54.232Z,50.20
2023-05-09T23:43:39.449Z,50.61
2023-05-09T23:46:24.745Z,50.31
2023-05-09T23:49:09.962Z,50.86
2023-05-09T23:51:55.286Z,50.51
2023-05-09T23:54:40.492Z,50.78
2023-05-09T23:57:26.306Z,51.04
